Aérodrome :
LOGIN :

S'inscrire | Disclaimer

   EN    FR    IT 

 










Légende :    VFR   VFR Marginal   IFR   IFR Intensif   IFR Très Intensif
Visi : 
Plafond : 
>= 8 km
>= 3000ft
5 à 8 km
1000 à 3000 ft
1500m à 5 km
500 à 1000 ft
800 à 1500m
200 à 500 ft
< 800m
< 200 ft
Symboles :   Orages  Brouillard  Fortes neiges  Fortes précipitations  Vent > 20 kt
SIGMETs :   Divers  Orages  Givrage  Turbulence  Onde Orograph.  Cendres Volcan.






- Altitude de l'aérodrome : 1768 ft


LEHC - Huesca Pirineos

DERNIER METAR :
  • 211000Z 12007KT 070V160 CAVOK 20/13 Q1012

METARs EXPIRÉS :
  • 210930Z 11008KT 090V160 9999 FEW055 19/13 Q1012
  • 210900Z 10003KT 060V170 9999 FEW055 18/12 Q1012
  • 210830Z 10003KT 060V120 9999 FEW055 17/12 Q1012
  • 210800Z 09004KT 9999 FEW015 15/12 Q1011
  • 210730Z 11006KT 9999 FEW015 15/11 Q1011

TAF TAF LEHC
Valide du 21 à 09h jusqu'au 22 à 09h UTC


210800Z 2109/2209 18010KT 9999 SCT030 TX24/2114Z TN14/2206Z
TEMPO 2109/2113 12008KT
BECMG 2118/2120 07005KT



MET'MAP, la Météo Aéronautique d'un coup d'oeil ! - Copyright ORBIFLY Décembre 2007 - Disclaimer

ORBIFLY MET'MAP TEAM :

Programmation & Développement : Alexandra Zaïnal
Sur une idée originale de : Baudouin d'Aumeries
Assistance à la programmation : Marc-Olivier Méhu
Soutien technique & logistique : Manuel Goepfert

Contact : metmap@orbifly.com




SOURCES & CREDITS :

   NOAA